• Join FlightAware (Why Join?)
  • Login
  • US Flag 
09:28AM EDT


 

Airport Tracker/Info


-or-


 

Live Flight TrackerFlight Track Log ✈ N8KB ✈ 04-May-2013 ✈ KABQ - KSDL

Flight Track Log - Related Links

Times and Time Zones

All times are in EDT time to prevent confusion due to time zone crossing. See the N8KB flight status page for this flight to view local times or setup timezone preferences in your user account.

Time Position Orientation Groundspeed Altitude Reporting Facility
EDT Latitude Longitude Course Direction KTS MPH feet Rate Location/Type
01:48PM 35.0456 -106.5786 331° Northwest 164 189 6,300  Level Albuquerque Center
01:50PM 35.0858 -106.6064 331° Northwest 175 201 8,700 1,740 Climbing Albuquerque Center
01:51PM 35.0806 -106.6622 263° West 173 199 10,700 1,980 Climbing Albuquerque Center
01:52PM 35.0622 -106.7250 250° West 168 193 12,900 1,800 Climbing Albuquerque Center
01:53PM 35.0531 -106.7800 259° West 163 188 14,500 1,560 Climbing Albuquerque Center
01:54PM 35.0397 -106.8353 254° West 167 192 16,200 1,560 Climbing Albuquerque Center
01:55PM 35.0419 -106.8953 273° West 168 193 17,800 1,440 Climbing Albuquerque Center
01:56PM 35.0469 -106.9456 277° West 161 185 19,200 1,440 Climbing Albuquerque Center
01:57PM 35.0456 -106.9997 268° West 144 166 20,800 1,260 Climbing Albuquerque Center
01:58PM 35.0481 -107.0472 274° West 149 171 21,900 540 Climbing Albuquerque Center
01:59PM 35.0500 -107.1117 272° West 171 197 22,000  Climbing Albuquerque Center
02:00PM 35.0519 -107.1842 272° West 216 249 22,000  Level Albuquerque Center
02:01PM 35.0514 -107.2586 269° West 234 269 22,000  Level Albuquerque Center
02:02PM 35.0556 -107.3536 273° West 234 269 22,000  Level Albuquerque Center
02:03PM 35.0581 -107.4344 272° West 236 272 22,000  Level Albuquerque Center
02:04PM 35.0581 -107.5144 270° West 237 273 22,000  Level Albuquerque Center
02:05PM 35.0572 -107.5956 269° West 238 274 22,000  Level Albuquerque Center
02:06PM 35.0594 -107.6764 272° West 238 274 22,000  Level Albuquerque Center
02:07PM 35.0600 -107.7575 271° West 239 275 22,000  Level Albuquerque Center
02:08PM 35.0619 -107.8550 271° West 240 276 22,000  Level Albuquerque Center
02:09PM 35.0628 -107.9336 271° West 242 278 22,000  Level Albuquerque Center
02:10PM 35.0653 -108.0117 272° West 241 277 22,000  Level Albuquerque Center
02:11PM 35.0656 -108.1014 270° West 238 274 22,000  Level Albuquerque Center
02:12PM 35.0656 -108.1767 270° West 233 268 22,000  Level Albuquerque Center
02:14PM 35.0647 -108.2675 269° West 238 274 22,000  Level Albuquerque Center
02:15PM 35.0658 -108.3456 271° West 240 276 22,000  Level Albuquerque Center
02:16PM 35.0683 -108.4367 272° West 241 277 22,000  Level Albuquerque Center
02:17PM 35.0703 -108.5164 272° West 243 280 22,000  Level Albuquerque Center
02:18PM 35.0700 -108.5936 270° West 240 276 22,000  Level Albuquerque Center
02:19PM 35.0706 -108.6850 270° West 240 276 22,000  Level Albuquerque Center
02:20PM 35.0706 -108.7642 270° West 243 280 22,000  Level Albuquerque Center
02:21PM 35.0717 -108.8550 271° West 240 276 22,000  Level Albuquerque Center
02:22PM 35.0717 -108.9339 270° West 242 278 22,000  Level Albuquerque Center
02:23PM 35.0722 -109.0133 271° West 243 280 22,000  Level Albuquerque Center
02:24PM 35.0725 -109.1053 270° West 243 280 22,000  Level Albuquerque Center
02:25PM 35.0731 -109.1850 271° West 243 280 22,000  Level Albuquerque Center
02:26PM 35.0739 -109.2786 271° West 246 283 22,000  Level Albuquerque Center
02:27PM 35.0736 -109.3578 270° West 245 282 22,000  Level Albuquerque Center
02:28PM 35.0731 -109.4375 270° West 244 281 22,000  Level Albuquerque Center
02:29PM 35.0728 -109.5300 270° West 243 280 22,000  Level Albuquerque Center
02:30PM 35.0717 -109.6078 269° West 241 277 22,000  Level Albuquerque Center
02:31PM 35.0711 -109.7011 270° West 244 281 22,000  Level Albuquerque Center
02:32PM 35.0694 -109.7786 269° West 241 277 22,000  Level Albuquerque Center
02:33PM 35.0703 -109.8714 271° West 242 278 22,000  Level Albuquerque Center
02:34PM 35.0703 -109.9494 270° West 242 278 22,000  Level Albuquerque Center
02:35PM 35.0697 -110.0272 270° West 240 276 22,000  Level Albuquerque Center
02:36PM 35.0706 -110.1197 271° West 242 278 22,000  Level Albuquerque Center
02:37PM 35.0711 -110.2017 270° West 248 285 22,000  Level Albuquerque Center
02:39PM 35.0675 -110.3708 269° West 242 278 22,000  Level Albuquerque Center
02:40PM 35.0681 -110.4489 271° West 241 277 22,000  Level Albuquerque Center
02:41PM 35.0647 -110.5400 267° West 241 277 22,000  Level Albuquerque Center
02:42PM 35.0575 -110.6178 264° West 254 292 22,000 -60 Level Albuquerque Center
02:43PM 35.0092 -110.6908 231° Southwest 247 284 21,900 -480 Descending Albuquerque Center
02:44PM 34.9583 -110.7517 224° Southwest 259 298 21,100 -900 Descending Albuquerque Center
02:45PM 34.9039 -110.8250 228° Southwest 271 312 20,100 -540 Descending Albuquerque Center
02:46PM 34.8622 -110.8989 236° Southwest 265 305 20,000 -60 Descending Albuquerque Center
02:47PM 34.8239 -110.9683 236° Southwest 253 291 20,000  Level Albuquerque Center
02:48PM 34.7819 -111.0367 233° Southwest 253 291 20,000  Level Albuquerque Center
02:49PM 34.7383 -111.1019 231° Southwest 251 289 20,000  Level Albuquerque Center
02:50PM 34.6953 -111.1656 231° Southwest 245 282 20,000  Level Albuquerque Center
02:52PM 34.6542 -111.2311 233° Southwest 245 282 20,000 -240 Level Albuquerque Center
02:53PM 34.6056 -111.3106 233° Southwest 244 281 19,600 -660 Descending Albuquerque Center
02:54PM 34.5600 -111.3789 231° Southwest 255 293 18,700 -900 Descending Albuquerque Center
02:55PM 34.5119 -111.4494 230° Southwest 267 307 17,800 -1,200 Descending Albuquerque Center
02:56PM 34.4644 -111.5217 231° Southwest 273 314 16,300 -1,320 Descending Albuquerque Center
02:57PM 34.4183 -111.5958 233° Southwest 275 316 15,100 -1,260 Descending Albuquerque Center
02:58PM 34.3711 -111.6689 232° Southwest 276 318 13,800 -1,380 Descending Albuquerque Center
02:59PM 34.3125 -111.7531 230° Southwest 275 316 12,300 -1,260 Descending Albuquerque Center
03:00PM 34.2658 -111.8239 231° Southwest 273 314 11,300 -720 Descending Albuquerque Center
03:01PM 34.2228 -111.8925 233° Southwest 265 305 10,900 -300 Descending Albuquerque Center
03:02PM 34.1658 -111.9242 205° Southwest 243 280 10,700 -480 Descending Albuquerque Center
03:03PM 34.0997 -111.9375 189° South 243 280 10,000 -780 Descending Albuquerque Center
03:04PM 34.0319 -111.9361 179° South 245 282 9,200 -1,080 Descending Albuquerque Center
03:05PM 33.9544 -111.9275 175° South 239 275 7,900 -1,260 Descending Albuquerque Center
03:06PM 33.8906 -111.9169 172° South 237 273 6,700 -1,260 Descending Albuquerque Center
03:07PM 33.8278 -111.9042 170° South 231 266 5,400 -1,140 Descending Albuquerque Center
03:08PM 33.7675 -111.8933 172° South 221 254 4,400 -840 Descending Albuquerque Center
03:09PM 33.7106 -111.8839 172° South 211 243 3,700 -660 Descending Albuquerque Center
03:10PM 33.6706 -111.8750 170° South 169 194 3,100 -1,020 Descending Albuquerque Center
03:11PM 33.6386 -111.8972 210° Southwest 145 167 1,700 -1,380 Descending Albuquerque Center
03:13PM 33.6229 -111.9105 189° South  Level Estimated